TAF and METAR

Decoding for American and Canadian METARs and TAFs is not fully implemented.

Could not understand the following METAR

PAGM 230856Z AUTO 36004KT 10SM OVC018 00/M02 A3015 RMK AO2 SLP217 T00001017 400111006 53003 FZRANO
No TAF available for Gambell Airport
Gambell Airport in United States of America at 8m

Latest 5 airports